createdAt,value
2023-05-21T00:00:04.286Z,14.24
2023-05-21T00:01:04.279Z,14.26
2023-05-21T00:02:04.273Z,14.26
2023-05-21T00:03:04.371Z,14.26
2023-05-21T00:04:04.383Z,14.24
2023-05-21T00:05:04.248Z,14.22
2023-05-21T00:06:04.330Z,14.21
2023-05-21T00:07:04.206Z,14.19
2023-05-21T00:08:04.199Z,14.17
2023-05-21T00:09:04.188Z,14.18
2023-05-21T00:10:04.196Z,14.18
2023-05-21T00:11:04.200Z,14.17
2023-05-21T00:12:04.169Z,14.18
2023-05-21T00:13:04.176Z,14.17
2023-05-21T00:14:04.149Z,14.15
2023-05-21T00:15:04.145Z,14.14
2023-05-21T00:16:04.188Z,14.15
2023-05-21T00:17:04.115Z,14.14
2023-05-21T00:18:04.126Z,14.13
2023-05-21T00:19:04.100Z,14.13
2023-05-21T00:20:04.121Z,14.12
2023-05-21T00:21:04.096Z,14.09
2023-05-21T00:22:04.052Z,14.06
2023-05-21T00:23:04.120Z,14.05
2023-05-21T00:24:04.028Z,14.04
2023-05-21T00:25:04.062Z,14.02
2023-05-21T00:26:04.045Z,14.00
2023-05-21T00:27:04.012Z,14.00
2023-05-21T00:28:03.999Z,13.98
2023-05-21T00:29:03.999Z,13.94
2023-05-21T00:30:03.992Z,13.93
2023-05-21T00:31:03.960Z,13.92
2023-05-21T00:32:04.040Z,13.90
2023-05-21T00:33:04.068Z,13.89
2023-05-21T00:34:03.930Z,13.88
2023-05-21T00:35:03.971Z,13.87
2023-05-21T00:36:03.902Z,13.85
2023-05-21T00:37:03.917Z,13.83
2023-05-21T00:38:03.901Z,13.81
2023-05-21T00:39:03.882Z,13.81
2023-05-21T00:40:03.870Z,13.81
2023-05-21T00:41:03.873Z,13.80
2023-05-21T00:42:03.829Z,13.81
2023-05-21T00:43:03.887Z,13.83
2023-05-21T00:44:03.810Z,13.81
2023-05-21T00:45:03.802Z,13.75
2023-05-21T00:46:03.854Z,13.72
2023-05-21T00:47:03.784Z,13.73
2023-05-21T00:48:03.851Z,13.75
2023-05-21T00:49:03.800Z,13.75
2023-05-21T00:50:03.756Z,13.74
2023-05-21T00:51:03.757Z,13.75
2023-05-21T00:52:03.761Z,13.77
2023-05-21T00:53:03.722Z,13.78
2023-05-21T00:54:03.711Z,13.77
2023-05-21T00:55:03.742Z,13.77
2023-05-21T00:56:03.703Z,13.76
2023-05-21T00:57:03.697Z,13.75
2023-05-21T00:58:03.702Z,13.77
2023-05-21T00:59:03.696Z,13.79
2023-05-21T01:00:03.682Z,13.80
2023-05-21T01:01:03.797Z,13.80
2023-05-21T01:02:03.659Z,13.80
2023-05-21T01:03:03.731Z,13.79
2023-05-21T01:04:03.630Z,13.77
2023-05-21T01:05:03.611Z,13.75
2023-05-21T01:06:03.629Z,13.74
2023-05-21T01:07:03.614Z,13.74
2023-05-21T01:08:03.577Z,13.75
2023-05-21T01:09:05.088Z,13.76
2023-05-21T01:10:03.598Z,13.76
2023-05-21T01:11:03.545Z,13.75
2023-05-21T01:12:03.578Z,13.71
2023-05-21T01:13:03.553Z,13.67
2023-05-21T01:14:03.516Z,13.65
2023-05-21T01:15:03.489Z,13.63
2023-05-21T01:16:03.513Z,13.59
2023-05-21T01:17:03.598Z,13.56
2023-05-21T01:18:03.661Z,13.54
2023-05-21T01:19:03.589Z,13.55
2023-05-21T01:20:03.479Z,13.55
2023-05-21T01:21:03.451Z,13.54
2023-05-21T01:22:03.414Z,13.55
2023-05-21T01:23:03.450Z,13.55
2023-05-21T01:24:03.396Z,13.58
2023-05-21T01:25:03.413Z,13.60
2023-05-21T01:26:03.401Z,13.58
2023-05-21T01:27:03.363Z,13.55
2023-05-21T01:28:03.355Z,13.54
2023-05-21T01:29:03.381Z,13.56
2023-05-21T01:30:03.385Z,13.57
2023-05-21T01:31:03.333Z,13.58
2023-05-21T01:32:03.348Z,13.57
2023-05-21T01:33:03.613Z,13.54
2023-05-21T01:34:03.345Z,13.50
2023-05-21T01:35:03.320Z,13.49
2023-05-21T01:36:03.301Z,13.50
2023-05-21T01:37:03.277Z,13.52
2023-05-21T01:38:03.324Z,13.54
2023-05-21T01:39:03.266Z,13.55
2023-05-21T01:40:03.268Z,13.54
2023-05-21T01:41:03.255Z,13.54
2023-05-21T01:42:03.216Z,13.52
2023-05-21T01:43:03.251Z,13.52
2023-05-21T01:44:03.214Z,13.54
2023-05-21T01:45:03.239Z,13.53
2023-05-21T01:46:03.206Z,13.50
2023-05-21T01:47:03.207Z,13.48
2023-05-21T01:48:03.241Z,13.47
2023-05-21T01:49:03.138Z,13.48
2023-05-21T01:50:03.197Z,13.47
2023-05-21T01:51:03.145Z,13.46
2023-05-21T01:52:03.131Z,13.44
2023-05-21T01:53:03.158Z,13.39
2023-05-21T01:54:03.150Z,13.35
2023-05-21T01:55:03.125Z,13.33
2023-05-21T01:56:03.120Z,13.34
2023-05-21T01:57:03.099Z,13.34
2023-05-21T01:58:03.044Z,13.31
2023-05-21T01:59:03.069Z,13.27
2023-05-21T02:00:03.078Z,13.23
2023-05-21T02:01:03.075Z,13.19
2023-05-21T02:02:03.030Z,13.16
2023-05-21T02:03:03.159Z,13.13
2023-05-21T02:04:03.179Z,13.13
2023-05-21T02:05:03.004Z,13.14
2023-05-21T02:06:02.967Z,13.15
2023-05-21T02:07:02.971Z,13.15
2023-05-21T02:08:03.032Z,13.13
2023-05-21T02:09:02.970Z,13.13
2023-05-21T02:10:02.966Z,13.15
2023-05-21T02:11:02.921Z,13.18
2023-05-21T02:12:02.902Z,13.20
2023-05-21T02:13:02.898Z,13.19
2023-05-21T02:14:02.919Z,13.16
2023-05-21T02:15:02.888Z,13.15
2023-05-21T02:16:02.909Z,13.12
2023-05-21T02:17:02.869Z,13.08
2023-05-21T02:18:02.912Z,13.06
2023-05-21T02:19:02.941Z,13.07
2023-05-21T02:20:02.899Z,13.09
2023-05-21T02:21:02.897Z,13.09
2023-05-21T02:22:02.806Z,13.10
2023-05-21T02:23:02.840Z,13.11
2023-05-21T02:24:02.823Z,13.12
2023-05-21T02:25:02.815Z,13.14
2023-05-21T02:26:02.843Z,13.16
2023-05-21T02:27:02.752Z,13.15
2023-05-21T02:28:02.798Z,13.15
2023-05-21T02:29:02.761Z,13.17
2023-05-21T02:30:02.722Z,13.16
2023-05-21T02:31:02.765Z,13.15
2023-05-21T02:32:02.780Z,13.14
2023-05-21T02:33:02.801Z,13.11
2023-05-21T02:34:02.758Z,13.09
2023-05-21T02:35:02.694Z,13.08
2023-05-21T02:36:02.695Z,13.06
2023-05-21T02:37:02.690Z,13.06
2023-05-21T02:38:02.637Z,13.06
2023-05-21T02:39:02.726Z,13.05
2023-05-21T02:40:02.629Z,13.06
2023-05-21T02:41:02.625Z,13.06
2023-05-21T02:42:02.643Z,13.04
2023-05-21T02:43:02.625Z,12.99
2023-05-21T02:44:02.605Z,12.98
2023-05-21T02:45:02.599Z,12.95
2023-05-21T02:46:02.644Z,12.92
2023-05-21T02:47:02.555Z,12.90
2023-05-21T02:48:03.276Z,12.91
2023-05-21T02:49:02.611Z,12.89
2023-05-21T02:50:02.552Z,12.86
2023-05-21T02:51:02.601Z,12.84
2023-05-21T02:52:02.519Z,12.83
2023-05-21T02:53:02.509Z,12.84
2023-05-21T02:54:02.500Z,12.87
2023-05-21T02:55:02.520Z,12.89
2023-05-21T02:56:02.480Z,12.88
2023-05-21T02:57:02.447Z,12.85
2023-05-21T02:58:02.474Z,12.84
2023-05-21T02:59:02.450Z,12.83
2023-05-21T03:00:02.466Z,12.82
2023-05-21T03:01:02.482Z,12.82
2023-05-21T03:02:02.489Z,12.84
2023-05-21T03:03:02.477Z,12.84
2023-05-21T03:04:02.384Z,12.82
2023-05-21T03:05:02.388Z,12.79
2023-05-21T03:06:02.374Z,12.77
2023-05-21T03:07:02.346Z,12.78
2023-05-21T03:08:02.358Z,12.79
2023-05-21T03:09:02.341Z,12.82
2023-05-21T03:10:02.326Z,12.82
2023-05-21T03:11:02.330Z,12.80
2023-05-21T03:12:02.280Z,12.77
2023-05-21T03:13:02.329Z,12.73
2023-05-21T03:14:02.357Z,12.71
2023-05-21T03:15:02.271Z,12.71
2023-05-21T03:16:02.248Z,12.72
2023-05-21T03:17:02.356Z,12.73
2023-05-21T03:18:02.268Z,12.74
2023-05-21T03:19:02.284Z,12.75
2023-05-21T03:20:02.205Z,12.72
2023-05-21T03:21:02.192Z,12.66
2023-05-21T03:22:02.180Z,12.63
2023-05-21T03:23:02.185Z,12.61
2023-05-21T03:24:02.218Z,12.61
2023-05-21T03:25:02.228Z,12.62
2023-05-21T03:26:02.280Z,12.62
2023-05-21T03:27:02.171Z,12.63
2023-05-21T03:28:02.126Z,12.62
2023-05-21T03:29:02.124Z,12.61
2023-05-21T03:30:02.163Z,12.60
2023-05-21T03:31:02.087Z,12.60
2023-05-21T03:32:02.154Z,12.59
2023-05-21T03:33:02.154Z,12.57
2023-05-21T03:34:02.103Z,12.57
2023-05-21T03:35:02.078Z,12.58
2023-05-21T03:36:02.092Z,12.60
2023-05-21T03:37:02.037Z,12.60
2023-05-21T03:38:02.023Z,12.61
2023-05-21T03:39:02.013Z,12.61
2023-05-21T03:40:02.015Z,12.60
2023-05-21T03:41:02.032Z,12.60
2023-05-21T03:42:01.977Z,12.61
2023-05-21T03:43:01.966Z,12.63
2023-05-21T03:44:01.982Z,12.64
2023-05-21T03:45:01.993Z,12.61
2023-05-21T03:46:01.966Z,12.60
2023-05-21T03:47:01.964Z,12.61
2023-05-21T03:48:02.069Z,12.61
2023-05-21T03:49:01.900Z,12.61
2023-05-21T03:50:01.963Z,12.62
2023-05-21T03:51:01.923Z,12.63
2023-05-21T03:52:01.899Z,12.60
2023-05-21T03:53:01.947Z,12.56
2023-05-21T03:54:01.854Z,12.55
2023-05-21T03:55:01.874Z,12.56
2023-05-21T03:56:01.854Z,12.57
2023-05-21T03:57:01.889Z,12.55
2023-05-21T03:58:01.854Z,12.54
2023-05-21T03:59:01.851Z,12.55
2023-05-21T04:00:01.844Z,12.55
2023-05-21T04:01:01.822Z,12.58
2023-05-21T04:02:01.753Z,12.58
2023-05-21T04:03:01.981Z,12.57
2023-05-21T04:04:01.880Z,12.56
2023-05-21T04:05:01.783Z,12.56
2023-05-21T04:06:01.765Z,12.56
2023-05-21T04:07:01.725Z,12.58
2023-05-21T04:08:01.704Z,12.59
2023-05-21T04:09:01.714Z,12.59
2023-05-21T04:10:01.736Z,12.59
2023-05-21T04:11:01.692Z,12.57
2023-05-21T04:12:01.704Z,12.55
2023-05-21T04:13:01.658Z,12.55
2023-05-21T04:14:01.663Z,12.55
2023-05-21T04:15:01.683Z,12.54
2023-05-21T04:16:01.757Z,12.55
2023-05-21T04:17:01.684Z,12.57
2023-05-21T04:18:01.810Z,12.59
2023-05-21T04:19:01.662Z,12.61
2023-05-21T04:20:01.618Z,12.63
2023-05-21T04:21:01.607Z,12.62
2023-05-21T04:22:01.610Z,12.64
2023-05-21T04:23:01.562Z,12.65
2023-05-21T04:24:01.533Z,12.65
2023-05-21T04:25:01.558Z,12.66
2023-05-21T04:26:01.611Z,12.68
2023-05-21T04:27:01.750Z,12.70
2023-05-21T04:28:01.573Z,12.72
2023-05-21T04:29:01.484Z,12.70
2023-05-21T04:30:01.569Z,12.69
2023-05-21T04:31:01.588Z,12.68
2023-05-21T04:32:01.482Z,12.68
2023-05-21T04:33:01.521Z,12.70
2023-05-21T04:34:01.567Z,12.71
2023-05-21T04:35:01.430Z,12.72
2023-05-21T04:36:01.436Z,12.73
2023-05-21T04:37:01.404Z,12.75
2023-05-21T04:38:02.964Z,12.76
2023-05-21T04:39:01.394Z,12.76
2023-05-21T04:40:01.416Z,12.78
2023-05-21T04:41:01.378Z,12.80
2023-05-21T04:42:01.354Z,12.82
2023-05-21T04:43:01.346Z,12.81
2023-05-21T04:44:01.329Z,12.82
2023-05-21T04:45:01.336Z,12.83
2023-05-21T04:46:01.345Z,12.85
2023-05-21T04:47:01.374Z,12.86
2023-05-21T04:48:01.393Z,12.86
2023-05-21T04:49:01.284Z,12.85
2023-05-21T04:50:01.313Z,12.84
2023-05-21T04:51:01.260Z,12.84
2023-05-21T04:52:01.346Z,12.82
2023-05-21T04:53:01.234Z,12.80
2023-05-21T04:54:01.235Z,12.80
2023-05-21T04:55:01.225Z,12.79
2023-05-21T04:56:01.210Z,12.79
2023-05-21T04:57:01.232Z,12.83
2023-05-21T04:58:01.242Z,12.88
2023-05-21T04:59:01.949Z,12.90
2023-05-21T05:00:01.226Z,12.90
2023-05-21T05:01:01.288Z,12.91
2023-05-21T05:02:01.164Z,12.91
2023-05-21T05:03:01.292Z,12.91
2023-05-21T05:04:01.183Z,12.93
2023-05-21T05:05:01.142Z,12.96
2023-05-21T05:06:01.142Z,12.99
2023-05-21T05:07:01.097Z,13.02
2023-05-21T05:08:01.115Z,13.00
2023-05-21T05:09:01.092Z,12.97
2023-05-21T05:10:01.112Z,12.96
2023-05-21T05:11:01.080Z,12.96
2023-05-21T05:12:01.077Z,12.98
2023-05-21T05:13:01.035Z,12.95
2023-05-21T05:14:01.059Z,12.91
2023-05-21T05:15:01.059Z,12.91
2023-05-21T05:16:01.075Z,12.92
2023-05-21T05:17:01.062Z,12.93
2023-05-21T05:18:01.052Z,12.91
2023-05-21T05:19:01.010Z,12.91
2023-05-21T05:20:01.015Z,12.93
2023-05-21T05:21:01.025Z,12.94
2023-05-21T05:22:00.968Z,12.94
2023-05-21T05:23:01.015Z,12.96
2023-05-21T05:24:00.918Z,12.99
2023-05-21T05:25:00.927Z,13.02
2023-05-21T05:26:00.939Z,13.01
2023-05-21T05:27:00.898Z,13.00
2023-05-21T05:28:00.913Z,12.99
2023-05-21T05:29:00.878Z,13.00
2023-05-21T05:30:00.855Z,13.02
2023-05-21T05:31:00.912Z,13.03
2023-05-21T05:32:00.871Z,13.07
2023-05-21T05:33:00.950Z,13.09
2023-05-21T05:34:00.856Z,13.12
2023-05-21T05:35:02.364Z,13.16
2023-05-21T05:36:00.830Z,13.19
2023-05-21T05:37:00.861Z,13.23
2023-05-21T05:38:00.815Z,13.27
2023-05-21T05:39:00.793Z,13.31
2023-05-21T05:40:00.782Z,13.31
2023-05-21T05:41:00.750Z,13.29
2023-05-21T05:42:00.732Z,13.28
2023-05-21T05:43:00.800Z,13.27
2023-05-21T05:44:00.730Z,13.27
2023-05-21T05:45:00.731Z,13.27
2023-05-21T05:46:00.803Z,13.29
2023-05-21T05:47:00.701Z,13.29
2023-05-21T05:48:00.740Z,13.29
2023-05-21T05:49:00.668Z,13.30
2023-05-21T05:50:00.726Z,13.33
2023-05-21T05:51:00.652Z,13.37
2023-05-21T05:52:00.648Z,13.41
2023-05-21T05:53:00.623Z,13.44
2023-05-21T05:54:00.652Z,13.46
2023-05-21T05:55:00.622Z,13.47
2023-05-21T05:56:00.586Z,13.48
2023-05-21T05:57:00.582Z,13.49
2023-05-21T05:58:00.600Z,13.51
2023-05-21T05:59:00.542Z,13.52
2023-05-21T06:00:00.544Z,13.48
2023-05-21T06:01:00.560Z,13.46
2023-05-21T06:02:00.544Z,13.48
2023-05-21T06:03:00.638Z,13.52
2023-05-21T06:04:00.531Z,13.54
2023-05-21T06:05:00.532Z,13.57
2023-05-21T06:06:00.540Z,13.61
2023-05-21T06:07:00.594Z,13.66
2023-05-21T06:08:00.455Z,13.70
2023-05-21T06:09:00.468Z,13.74
2023-05-21T06:10:00.510Z,13.77
2023-05-21T06:11:00.471Z,13.78
2023-05-21T06:12:00.459Z,13.78
2023-05-21T06:13:00.433Z,13.78
2023-05-21T06:14:00.457Z,13.81
2023-05-21T06:15:00.431Z,13.83
2023-05-21T06:16:00.482Z,13.85
2023-05-21T06:17:00.394Z,13.89
2023-05-21T06:18:00.555Z,13.94
2023-05-21T06:19:00.392Z,13.98
2023-05-21T06:20:00.463Z,13.98
2023-05-21T06:21:00.335Z,13.97
2023-05-21T06:22:00.348Z,13.96
2023-05-21T06:23:00.304Z,13.94
2023-05-21T06:24:00.328Z,13.92
2023-05-21T06:25:00.317Z,13.93
2023-05-21T06:26:00.310Z,13.97
2023-05-21T06:27:00.302Z,14.01
2023-05-21T06:28:00.265Z,14.02
2023-05-21T06:29:00.238Z,14.01
2023-05-21T06:30:00.286Z,14.02
2023-05-21T06:31:00.211Z,14.05
2023-05-21T06:32:00.223Z,14.04
2023-05-21T06:33:00.291Z,13.99
2023-05-21T06:34:00.512Z,13.96
2023-05-21T06:35:00.167Z,13.99
2023-05-21T06:36:00.196Z,14.03
2023-05-21T06:37:00.179Z,14.07
2023-05-21T06:38:00.173Z,14.11
2023-05-21T06:39:00.154Z,14.12
2023-05-21T06:40:00.184Z,14.11
2023-05-21T06:41:00.160Z,14.13
2023-05-21T06:42:00.161Z,14.17
2023-05-21T06:43:00.180Z,14.19
2023-05-21T06:44:00.154Z,14.19
2023-05-21T06:45:00.128Z,14.20
2023-05-21T06:46:00.210Z,14.23
2023-05-21T06:47:00.051Z,14.26
2023-05-21T06:48:00.141Z,14.27
2023-05-21T06:49:00.052Z,14.26
2023-05-21T06:50:00.067Z,14.25
2023-05-21T06:51:00.030Z,14.26
2023-05-21T06:52:00.053Z,14.29
2023-05-21T06:53:00.003Z,14.33
2023-05-21T06:53:59.997Z,14.32
2023-05-21T06:55:00.065Z,14.30
2023-05-21T06:56:00.006Z,14.28
2023-05-21T06:56:59.965Z,14.25
2023-05-21T06:58:00.016Z,14.25
2023-05-21T06:58:59.951Z,14.25
2023-05-21T06:59:59.919Z,14.26
2023-05-21T07:00:59.956Z,14.26
2023-05-21T07:02:00.178Z,14.26
2023-05-21T07:03:00.001Z,14.27
2023-05-21T07:03:59.916Z,14.29
2023-05-21T07:04:59.901Z,14.33
2023-05-21T07:05:59.854Z,14.36
2023-05-21T07:06:59.905Z,14.32
2023-05-21T07:07:59.849Z,14.29
2023-05-21T07:08:59.823Z,14.28
2023-05-21T07:09:59.868Z,14.31
2023-05-21T07:10:59.818Z,14.34
2023-05-21T07:11:59.835Z,14.37
2023-05-21T07:12:59.779Z,14.36
2023-05-21T07:13:59.793Z,14.35
2023-05-21T07:14:59.810Z,14.35
2023-05-21T07:15:59.776Z,14.38
2023-05-21T07:16:59.878Z,14.40
2023-05-21T07:17:59.793Z,14.40
2023-05-21T07:18:59.810Z,14.39
2023-05-21T07:19:59.760Z,14.41
2023-05-21T07:20:59.738Z,14.46
2023-05-21T07:21:59.775Z,14.52
2023-05-21T07:22:59.720Z,14.58
2023-05-21T07:23:59.687Z,14.61
2023-05-21T07:24:59.656Z,14.64
2023-05-21T07:25:59.677Z,14.67
2023-05-21T07:26:59.738Z,14.69
2023-05-21T07:27:59.677Z,14.66
2023-05-21T07:28:59.687Z,14.63
2023-05-21T07:29:59.640Z,14.63
2023-05-21T07:30:59.627Z,14.66
2023-05-21T07:31:59.651Z,14.67
2023-05-21T07:32:59.625Z,14.67
2023-05-21T07:33:59.573Z,14.69
2023-05-21T07:34:59.567Z,14.73
2023-05-21T07:35:59.545Z,14.78
2023-05-21T07:36:59.555Z,14.81
2023-05-21T07:37:59.643Z,14.87
2023-05-21T07:38:59.632Z,14.94
2023-05-21T07:39:59.518Z,15.01
2023-05-21T07:40:59.584Z,15.08
2023-05-21T07:41:59.592Z,15.16
2023-05-21T07:42:59.511Z,15.20
2023-05-21T07:43:59.534Z,15.18
2023-05-21T07:44:59.482Z,15.20
2023-05-21T07:45:59.491Z,15.26
2023-05-21T07:46:59.523Z,15.33
2023-05-21T07:47:59.527Z,15.40
2023-05-21T07:48:59.447Z,15.47
2023-05-21T07:49:59.449Z,15.52
2023-05-21T07:50:59.433Z,15.52
2023-05-21T07:51:59.444Z,15.51
2023-05-21T07:52:59.489Z,15.51
2023-05-21T07:53:59.372Z,15.56
2023-05-21T07:54:59.370Z,15.62
2023-05-21T07:55:59.369Z,15.68
2023-05-21T07:56:59.350Z,15.73
2023-05-21T07:57:59.389Z,15.71
2023-05-21T07:58:59.370Z,15.70
2023-05-21T07:59:59.333Z,15.76
2023-05-21T08:00:59.305Z,15.80
2023-05-21T08:01:59.313Z,15.86
2023-05-21T08:02:59.385Z,15.94
2023-05-21T08:03:59.434Z,16.03
2023-05-21T08:04:59.324Z,16.12
2023-05-21T08:05:59.261Z,16.23
2023-05-21T08:06:59.255Z,16.35
2023-05-21T08:07:59.315Z,16.46
2023-05-21T08:08:59.292Z,16.52
2023-05-21T08:09:59.235Z,16.55
2023-05-21T08:10:59.225Z,16.61
2023-05-21T08:11:59.226Z,16.70
2023-05-21T08:12:59.184Z,16.82
2023-05-21T08:13:59.193Z,16.93
2023-05-21T08:14:59.229Z,17.00
2023-05-21T08:15:59.202Z,17.04
2023-05-21T08:16:59.164Z,17.06
2023-05-21T08:17:59.165Z,17.01
2023-05-21T08:18:59.243Z,16.95
2023-05-21T08:19:59.129Z,16.94
2023-05-21T08:20:59.149Z,16.92
2023-05-21T08:21:59.161Z,16.90
2023-05-21T08:22:59.082Z,16.89
2023-05-21T08:23:59.109Z,16.93
2023-05-21T08:24:59.084Z,16.99
2023-05-21T08:25:59.095Z,17.07
2023-05-21T08:26:59.072Z,17.14
2023-05-21T08:27:59.058Z,17.19
2023-05-21T08:28:59.019Z,17.23
2023-05-21T08:29:59.124Z,17.25
2023-05-21T08:30:58.988Z,17.27
2023-05-21T08:31:59.069Z,17.25
2023-05-21T08:32:59.101Z,17.17
2023-05-21T08:33:58.990Z,17.14
2023-05-21T08:34:58.954Z,17.15
2023-05-21T08:35:58.933Z,17.18
2023-05-21T08:36:58.955Z,17.19
2023-05-21T08:37:58.921Z,17.16
2023-05-21T08:38:58.956Z,17.17
2023-05-21T08:39:58.938Z,17.27
2023-05-21T08:40:58.936Z,17.38
2023-05-21T08:41:58.877Z,17.48
2023-05-21T08:42:58.856Z,17.58
2023-05-21T08:43:58.911Z,17.65
2023-05-21T08:44:58.847Z,17.70
2023-05-21T08:45:58.900Z,17.72
2023-05-21T08:46:58.815Z,17.72
2023-05-21T08:47:58.966Z,17.80
2023-05-21T08:48:58.798Z,17.93
2023-05-21T08:49:58.811Z,18.01
2023-05-21T08:50:58.785Z,18.05
2023-05-21T08:51:58.761Z,18.03
2023-05-21T08:52:58.809Z,18.02
2023-05-21T08:53:58.763Z,18.06
2023-05-21T08:54:58.749Z,18.08
2023-05-21T08:55:58.757Z,18.07
2023-05-21T08:56:58.711Z,18.00
2023-05-21T08:57:58.721Z,17.91
2023-05-21T08:58:58.730Z,17.81
2023-05-21T08:59:58.715Z,17.70
2023-05-21T09:00:58.701Z,17.65
2023-05-21T09:01:58.692Z,17.61
2023-05-21T09:02:58.718Z,17.61
2023-05-21T09:04:05.023Z,17.69
2023-05-21T09:04:58.628Z,17.76
2023-05-21T09:05:58.650Z,17.82
2023-05-21T09:06:58.599Z,17.90
2023-05-21T09:07:58.596Z,17.97
2023-05-21T09:08:58.586Z,18.01
2023-05-21T09:09:58.575Z,18.07
2023-05-21T09:10:58.704Z,18.12
2023-05-21T09:11:58.611Z,18.14
2023-05-21T09:12:58.552Z,18.18
2023-05-21T09:13:58.557Z,18.20
2023-05-21T09:14:58.547Z,18.22
2023-05-21T09:15:58.516Z,18.27
2023-05-21T09:16:58.667Z,18.33
2023-05-21T09:17:58.534Z,18.37
2023-05-21T09:18:58.495Z,18.39
2023-05-21T09:19:58.472Z,18.39
2023-05-21T09:20:58.499Z,18.40
2023-05-21T09:21:58.465Z,18.40
2023-05-21T09:22:58.456Z,18.38
2023-05-21T09:23:58.425Z,18.37
2023-05-21T09:24:58.445Z,18.37
2023-05-21T09:25:58.439Z,18.36
2023-05-21T09:26:58.541Z,18.38
2023-05-21T09:27:58.422Z,18.36
2023-05-21T09:28:58.406Z,18.39
2023-05-21T09:29:58.370Z,18.47
2023-05-21T09:30:58.435Z,18.51
2023-05-21T09:31:58.336Z,18.56
2023-05-21T09:32:58.359Z,18.63
2023-05-21T09:33:58.344Z,18.72
2023-05-21T09:34:58.315Z,18.74
2023-05-21T09:35:58.302Z,18.73
2023-05-21T09:36:58.326Z,18.76
2023-05-21T09:37:58.323Z,18.87
2023-05-21T09:38:58.278Z,18.99
2023-05-21T09:39:58.286Z,19.06
2023-05-21T09:40:58.310Z,19.08
2023-05-21T09:41:58.253Z,19.14
2023-05-21T09:42:58.226Z,19.22
2023-05-21T09:43:58.210Z,19.29
2023-05-21T09:44:58.233Z,19.33
2023-05-21T09:46:00.441Z,19.36
2023-05-21T09:46:58.286Z,19.42
2023-05-21T09:47:58.296Z,19.48
2023-05-21T09:48:58.167Z,19.56
2023-05-21T09:49:58.167Z,19.60
2023-05-21T09:50:58.161Z,19.56
2023-05-21T09:51:58.200Z,19.52
2023-05-21T09:52:58.128Z,19.49
2023-05-21T09:53:58.274Z,19.45
2023-05-21T09:54:58.160Z,19.39
2023-05-21T09:55:58.148Z,19.32
2023-05-21T09:56:58.122Z,19.30
2023-05-21T09:57:58.089Z,19.32
2023-05-21T09:58:58.060Z,19.33
2023-05-21T09:59:58.068Z,19.37
2023-05-21T10:00:58.166Z,19.44
2023-05-21T10:01:58.079Z,19.50
2023-05-21T10:02:58.076Z,19.54
2023-05-21T10:03:58.065Z,19.62
2023-05-21T10:04:58.056Z,19.67
2023-05-21T10:05:57.993Z,19.63
2023-05-21T10:06:57.981Z,19.56
2023-05-21T10:07:58.007Z,19.55
2023-05-21T10:08:57.992Z,19.62
2023-05-21T10:09:58.057Z,19.71
2023-05-21T10:10:57.954Z,19.79
2023-05-21T10:11:57.945Z,19.80
2023-05-21T10:12:57.929Z,19.82
2023-05-21T10:13:57.911Z,19.87
2023-05-21T10:14:57.913Z,19.92
2023-05-21T10:15:57.917Z,19.97
2023-05-21T10:16:57.881Z,19.95
2023-05-21T10:17:57.987Z,19.88
2023-05-21T10:18:57.914Z,19.85
2023-05-21T10:19:57.841Z,19.87
2023-05-21T10:20:57.843Z,19.87
2023-05-21T10:21:57.867Z,19.79
2023-05-21T10:22:57.819Z,19.70
2023-05-21T10:23:57.853Z,19.71
2023-05-21T10:24:57.832Z,19.82
2023-05-21T10:25:57.809Z,19.91
2023-05-21T10:26:57.795Z,19.95
2023-05-21T10:27:57.812Z,19.98
2023-05-21T10:28:57.766Z,19.95
2023-05-21T10:29:57.766Z,19.86
2023-05-21T10:30:57.761Z,19.78
2023-05-21T10:31:57.780Z,19.75
2023-05-21T10:32:57.954Z,19.77
2023-05-21T10:33:57.730Z,19.82
2023-05-21T10:34:59.307Z,19.91
2023-05-21T10:35:57.746Z,20.06
2023-05-21T10:36:57.727Z,20.20
2023-05-21T10:37:57.673Z,20.26
2023-05-21T10:38:57.668Z,20.27
2023-05-21T10:39:57.691Z,20.27
2023-05-21T10:40:57.629Z,20.31
2023-05-21T10:41:59.220Z,20.35
2023-05-21T10:42:57.674Z,20.35
2023-05-21T10:43:57.627Z,20.33
2023-05-21T10:44:57.606Z,20.27
2023-05-21T10:45:57.590Z,20.25
2023-05-21T10:46:57.579Z,20.26
2023-05-21T10:47:57.623Z,20.21
2023-05-21T10:48:57.583Z,20.14
2023-05-21T10:49:57.578Z,20.11
2023-05-21T10:50:57.566Z,20.16
2023-05-21T10:51:57.530Z,20.20
2023-05-21T10:52:57.511Z,20.26
2023-05-21T10:53:57.498Z,20.36
2023-05-21T10:54:57.545Z,20.42
2023-05-21T10:55:57.489Z,20.47
2023-05-21T10:56:57.510Z,20.49
2023-05-21T10:57:57.463Z,20.52
2023-05-21T10:58:57.509Z,20.54
2023-05-21T10:59:57.485Z,20.53
2023-05-21T11:00:57.501Z,20.55
2023-05-21T11:01:57.424Z,20.61
2023-05-21T11:02:57.464Z,20.67
2023-05-21T11:03:57.445Z,20.75
2023-05-21T11:04:57.421Z,20.80
2023-05-21T11:05:57.389Z,20.80
2023-05-21T11:06:57.450Z,20.80
2023-05-21T11:07:57.980Z,20.71
2023-05-21T11:08:57.357Z,20.58
2023-05-21T11:09:57.352Z,20.53
2023-05-21T11:10:57.393Z,20.51
2023-05-21T11:11:57.361Z,20.52
2023-05-21T11:12:57.329Z,20.48
2023-05-21T11:13:57.338Z,20.44
2023-05-21T11:14:57.321Z,20.48
2023-05-21T11:15:57.291Z,20.54
2023-05-21T11:16:57.292Z,20.56
2023-05-21T11:17:57.290Z,20.50
2023-05-21T11:18:57.292Z,20.44
2023-05-21T11:19:57.264Z,20.43
2023-05-21T11:20:57.238Z,20.43
2023-05-21T11:21:57.340Z,20.43
2023-05-21T11:22:57.236Z,20.41
2023-05-21T11:23:57.215Z,20.37
2023-05-21T11:24:57.194Z,20.32
2023-05-21T11:25:57.179Z,20.30
2023-05-21T11:26:57.200Z,20.31
2023-05-21T11:27:57.171Z,20.31
2023-05-21T11:28:57.145Z,20.31
2023-05-21T11:29:57.125Z,20.32
2023-05-21T11:30:57.166Z,20.34
2023-05-21T11:31:57.106Z,20.36
2023-05-21T11:32:57.174Z,20.38
2023-05-21T11:33:57.089Z,20.38
2023-05-21T11:34:57.094Z,20.36
2023-05-21T11:35:57.063Z,20.32
2023-05-21T11:36:57.072Z,20.29
2023-05-21T11:37:57.037Z,20.31
2023-05-21T11:38:57.049Z,20.33
2023-05-21T11:39:57.068Z,20.33
2023-05-21T11:40:57.016Z,20.32
2023-05-21T11:41:57.014Z,20.31
2023-05-21T11:42:57.025Z,20.35
2023-05-21T11:43:56.980Z,20.38
2023-05-21T11:44:57.497Z,20.40
2023-05-21T11:45:56.986Z,20.41
2023-05-21T11:46:56.996Z,20.45
2023-05-21T11:47:56.950Z,20.51
2023-05-21T11:48:56.957Z,20.60
2023-05-21T11:49:56.925Z,20.73
2023-05-21T11:50:56.904Z,20.82
2023-05-21T11:51:56.927Z,20.86
2023-05-21T11:52:56.897Z,20.89
2023-05-21T11:53:56.920Z,20.97
2023-05-21T11:54:56.955Z,21.03
2023-05-21T11:55:56.904Z,21.04
2023-05-21T11:56:56.904Z,21.08
2023-05-21T11:57:56.851Z,21.10
2023-05-21T11:58:56.840Z,21.11
2023-05-21T11:59:56.847Z,21.10
2023-05-21T12:00:56.807Z,21.03
2023-05-21T12:01:56.796Z,21.00
2023-05-21T12:02:57.747Z,21.03
2023-05-21T12:03:56.848Z,21.03
2023-05-21T12:04:56.810Z,21.00
2023-05-21T12:05:56.801Z,21.00
2023-05-21T12:06:56.756Z,21.04
2023-05-21T12:07:56.887Z,21.12
2023-05-21T12:08:56.734Z,21.17
2023-05-21T12:09:56.746Z,21.18
2023-05-21T12:10:56.732Z,21.21
2023-05-21T12:11:56.791Z,21.21
2023-05-21T12:12:57.531Z,21.22
2023-05-21T12:13:56.747Z,21.26
2023-05-21T12:14:56.682Z,21.26
2023-05-21T12:15:56.671Z,21.25
2023-05-21T12:16:56.711Z,21.29
2023-05-21T12:17:56.732Z,21.34
2023-05-21T12:18:56.641Z,21.38
2023-05-21T12:19:56.640Z,21.41
2023-05-21T12:20:56.606Z,21.44
2023-05-21T12:21:56.598Z,21.43
2023-05-21T12:22:56.605Z,21.43
2023-05-21T12:23:56.584Z,21.48
2023-05-21T12:24:56.559Z,21.55
2023-05-21T12:25:56.558Z,21.61
2023-05-21T12:26:56.544Z,21.62
2023-05-21T12:27:56.530Z,21.63
2023-05-21T12:28:56.549Z,21.68
2023-05-21T12:29:56.559Z,21.73
2023-05-21T12:30:56.570Z,21.77
2023-05-21T12:31:56.547Z,21.80
2023-05-21T12:32:56.497Z,21.79
2023-05-21T12:33:56.474Z,21.75
2023-05-21T12:34:56.480Z,21.72
2023-05-21T12:35:56.490Z,21.72
2023-05-21T12:36:56.438Z,21.65
2023-05-21T12:37:56.445Z,21.55
2023-05-21T12:38:56.431Z,21.51
2023-05-21T12:39:56.435Z,21.54
2023-05-21T12:40:56.418Z,21.60
2023-05-21T12:41:56.405Z,21.67
2023-05-21T12:42:56.433Z,21.75
2023-05-21T12:43:56.398Z,21.75
2023-05-21T12:44:56.365Z,21.72
2023-05-21T12:45:56.423Z,21.75
2023-05-21T12:46:56.339Z,21.82
2023-05-21T12:47:56.724Z,21.83
2023-05-21T12:48:56.334Z,21.72
2023-05-21T12:49:56.315Z,21.62
2023-05-21T12:50:56.588Z,21.58
2023-05-21T12:51:56.296Z,21.56